• Join FlightAware (Why Join?)
  • Login
  • US Flag 
03:53AM EST


 

Airport Tracker/Info


-or-


 

Live Flight TrackerFlight Track Log ✈ EGF3370 ✈ 08-May-2013 ✈ KSAF - KDFW

Flight Track Log - Related Links

Times and Time Zones

All times are in EDT time to prevent confusion due to time zone crossing. See the EGF3370 flight status page for this flight to view local times or setup timezone preferences in your user account.

Time Position Orientation Groundspeed Altitude Reporting Facility
EDT Latitude Longitude Course Direction KTS MPH feet Rate Location/Type
06:22PM 35.5811 -106.1089 115° Southeast 216 249 7,600  Level Albuquerque Center
06:23PM 35.5306 -106.0447 134° Southeast 293 337 8,400 1,560 Climbing Albuquerque Center
06:24PM 35.4953 -105.9556 116° Southeast 292 336 10,900 2,100 Climbing Albuquerque Center
06:25PM 35.4433 -105.8333 118° Southeast 317 365 12,800 1,860 Climbing Albuquerque Center
06:26PM 35.2715 -105.4358 115° Southeast  Level FlightAware Approximate
06:26PM 35.3972 -105.7233 117° Southeast 344 396 14,800  Level Albuquerque Center
06:27PM 35.2249 -105.3145 115° Southeast  Level FlightAware Approximate
06:27PM 35.3517 -105.6103 116° Southeast 361 415 16,900  Level Albuquerque Center
06:28PM 35.3050 -105.4994 117° Southeast 363 418 18,900 1,260 Climbing Albuquerque Center
06:29PM 35.2558 -105.3828 117° Southeast 380 437 19,600 1,380 Climbing Albuquerque Center
06:30PM 35.2033 -105.2589 117° Southeast 401 461 21,800 2,460 Climbing Albuquerque Center
06:31PM 35.1439 -105.1189 117° Southeast 398 458 24,700 2,580 Climbing Albuquerque Center
06:32PM 35.0967 -105.0003 116° Southeast 391 450 27,200 2,160 Climbing Albuquerque Center
06:33PM 35.0653 -104.8733 107° East 389 448 29,200 1,980 Climbing Albuquerque Center
06:34PM 35.0314 -104.7497 108° East 384 442 31,300 1,980 Climbing Albuquerque Center
06:35PM 34.9992 -104.6278 108° East 379 436 33,400 1,740 Climbing Albuquerque Center
06:36PM 34.9650 -104.5100 109° East 371 427 34,900 1,140 Climbing Albuquerque Center
06:37PM 34.9319 -104.3858 108° East 381 438 35,800 960 Climbing Albuquerque Center
06:38PM 34.8906 -104.2375 109° East 393 452 36,900 540 Climbing Albuquerque Center
06:39PM 34.8539 -104.1067 109° East 403 464 37,000  Climbing Albuquerque Center
06:40PM 34.8144 -103.9647 109° East 431 496 37,000  Level Albuquerque Center
06:41PM 34.7711 -103.8100 109° East 470 541 37,000  Level Albuquerque Center
06:42PM 34.7261 -103.6511 109° East 491 565 37,000  Level Albuquerque Center
06:43PM 34.6819 -103.4911 109° East 496 571 37,000  Level Albuquerque Center
06:44PM 34.6286 -103.3103 110° East 487 560 37,000  Level Albuquerque Center
06:45PM 34.5853 -103.1567 109° East 479 551 37,000  Level Albuquerque Center
06:46PM 34.5414 -103.0031 109° East 479 551 37,000  Level Albuquerque Center
06:47PM 34.4967 -102.8497 109° East 479 551 37,000  Level Albuquerque Center
06:48PM 34.4783 -102.6986 98° East 481 554 37,000  Level Albuquerque Center
06:50PM 34.4625 -102.5369 97° East 483 556 37,000  Level Albuquerque Center
06:51PM 34.4422 -102.3417 97° East 487 560 37,000  Level Albuquerque Center
06:52PM 34.4239 -102.1725 97° East 501 577 37,000  Level Albuquerque Center
06:53PM 34.4069 -102.0039 97° East 506 582 37,000  Level Albuquerque Center
06:54PM 34.3886 -101.8369 98° East 505 581 37,000  Level Albuquerque Center
06:55PM 34.3639 -101.6072 97° East 505 581 37,000  Level Fort Worth Center
06:56PM 34.3442 -101.4403 98° East 505 581 37,000  Level Fort Worth Center
06:57PM 34.3244 -101.2758 98° East 505 581 37,000  Level Fort Worth Center
06:58PM 34.3081 -101.1219 97° East 505 581 37,000  Level Fort Worth Center
06:59PM 34.2861 -100.9425 98° East 499 574 37,000  Level Fort Worth Center
07:00PM 34.2658 -100.7733 98° East 505 581 37,000  Level Fort Worth Center
07:01PM 34.2472 -100.6067 98° East 500 575 37,000  Level Fort Worth Center
07:02PM 34.2303 -100.4478 97° East 494 568 37,000  Level Fort Worth Center
07:03PM 34.2092 -100.2889 99° East 483 556 37,000  Level Fort Worth Center
07:04PM 34.1975 -100.1506 96° East 471 542 37,000  Level Fort Worth Center
07:05PM 34.2092 -99.9950 85° East 465 535 37,000  Level Fort Worth Center
07:06PM 34.2167 -99.8372 87° East 459 528 37,000  Level Fort Worth Center
07:07PM 34.2217 -99.6842 88° East 459 528 37,000  Level Fort Worth Center
07:08PM 34.2181 -99.5308 92° East 454 522 37,000  Level Fort Worth Center
07:09PM 34.1703 -99.3892 112° Southeast 448 516 37,000  Level Fort Worth Center
07:10PM 34.1139 -99.2497 116° Southeast 448 516 37,000  Level Fort Worth Center
07:11PM 34.0575 -99.1056 115° Southeast 462 532 37,000  Level Fort Worth Center
07:12PM 33.9969 -98.9542 116° Southeast 475 547 37,000  Level Fort Worth Center
07:13PM 33.9339 -98.8003 116° Southeast 497 572 37,000  Level Fort Worth Center
07:14PM 33.8708 -98.6542 117° Southeast 497 572 37,000 -1,440 Level Fort Worth Center
07:15PM 33.8056 -98.4908 116° Southeast 492 566 34,200 -3,000 Descending Fort Worth Center
07:16PM 33.7503 -98.3478 115° Southeast 479 551 31,000 -3,360 Descending Fort Worth Center
07:17PM 33.6908 -98.2047 117° Southeast 468 539 27,500 -3,720 Descending Fort Worth Center
07:18PM 33.6414 -98.0797 115° Southeast 468 539 23,600 -3,840 Descending Fort Worth Center
07:19PM 33.5858 -97.9419 116° Southeast 462 532 19,900 -3,840 Descending Fort Worth Center
07:20PM 33.5194 -97.8072 121° Southeast 438 504 16,000 -3,600 Descending Fort Worth Center
07:21PM 33.4425 -97.7122 134° Southeast 414 476 12,700 -2,760 Descending Fort Worth Center
07:22PM 33.3717 -97.6297 136° Southeast 371 427 10,500 -1,440 Descending Fort Worth Center
07:23PM 33.3114 -97.5575 135° Southeast 312 359 9,900 -600 Descending Fort Worth Center
07:24PM 33.2572 -97.4906 134° Southeast 291 335 9,400 -540 Descending Fort Worth Center
07:25PM 33.2069 -97.4283 134° Southeast 286 329 8,900 -840 Descending Fort Worth Center
07:26PM 33.1506 -97.3589 134° Southeast 274 315 7,800 -1,200 Descending Fort Worth Center
07:27PM 33.1131 -97.3042 129° Southeast 244 281 6,600 -1,500 Descending Fort Worth Center
07:28PM 33.0650 -97.2447 134° Southeast 233 268 4,800 -1,800 Descending Fort Worth Center